sensor_id;sensor_type;location;lat;lon;timestamp;pressure;altitude;pressure_sealevel;temperature;humidity
11347;BME280;5728;42.722;23.258;2022-10-23T00:01:57;95247.44;;;11.18;84.77
11347;BME280;5728;42.722;23.258;2022-10-23T00:04:28;95249.19;;;11.16;84.95
11347;BME280;5728;42.722;23.258;2022-10-23T00:06:54;95251.16;;;10.94;85.33
11347;BME280;5728;42.722;23.258;2022-10-23T00:09:23;95233.16;;;10.73;86.06
11347;BME280;5728;42.722;23.258;2022-10-23T00:11:50;95240.13;;;10.69;86.94
11347;BME280;5728;42.722;23.258;2022-10-23T00:14:20;95249.47;;;10.87;86.01
11347;BME280;5728;42.722;23.258;2022-10-23T00:16:47;95243.22;;;11.09;85.10
11347;BME280;5728;42.722;23.258;2022-10-23T00:19:14;95222.44;;;11.09;84.32
11347;BME280;5728;42.722;23.258;2022-10-23T00:21:43;95225.25;;;10.88;85.06
11347;BME280;5728;42.722;23.258;2022-10-23T00:24:10;95225.09;;;11.05;85.03
11347;BME280;5728;42.722;23.258;2022-10-23T00:26:37;95223.97;;;11.28;83.53
11347;BME280;5728;42.722;23.258;2022-10-23T00:29:05;95233.69;;;11.10;84.66
11347;BME280;5728;42.722;23.258;2022-10-23T00:31:32;95246.25;;;11.46;83.38
11347;BME280;5728;42.722;23.258;2022-10-23T00:33:59;95245.53;;;11.35;83.32
11347;BME280;5728;42.722;23.258;2022-10-23T00:36:26;95235.19;;;11.32;83.24
11347;BME280;5728;42.722;23.258;2022-10-23T00:38:54;95235.44;;;11.09;83.76
11347;BME280;5728;42.722;23.258;2022-10-23T00:41:22;95240.75;;;10.93;85.36
11347;BME280;5728;42.722;23.258;2022-10-23T00:44:07;95231.84;;;11.21;84.36
11347;BME280;5728;42.722;23.258;2022-10-23T00:46:36;95237.03;;;11.22;84.44
11347;BME280;5728;42.722;23.258;2022-10-23T00:49:04;95232.56;;;11.33;84.04
11347;BME280;5728;42.722;23.258;2022-10-23T00:51:35;95232.44;;;11.44;83.23
11347;BME280;5728;42.722;23.258;2022-10-23T00:54:05;95218.00;;;11.22;83.75
11347;BME280;5728;42.722;23.258;2022-10-23T00:56:34;95214.56;;;11.20;84.25
11347;BME280;5728;42.722;23.258;2022-10-23T00:59:03;95218.03;;;11.16;84.06
11347;BME280;5728;42.722;23.258;2022-10-23T01:01:30;95205.09;;;11.14;84.10
11347;BME280;5728;42.722;23.258;2022-10-23T01:03:57;95214.63;;;11.11;84.09
11347;BME280;5728;42.722;23.258;2022-10-23T01:06:32;95219.72;;;11.21;84.16
11347;BME280;5728;42.722;23.258;2022-10-23T01:09:09;95241.97;;;11.45;83.14
11347;BME280;5728;42.722;23.258;2022-10-23T01:11:39;95238.41;;;10.65;84.29
11347;BME280;5728;42.722;23.258;2022-10-23T01:14:16;95256.72;;;10.49;84.78
11347;BME280;5728;42.722;23.258;2022-10-23T01:16:55;95261.84;;;10.56;85.35
11347;BME280;5728;42.722;23.258;2022-10-23T01:19:36;95262.50;;;10.81;84.63
11347;BME280;5728;42.722;23.258;2022-10-23T01:22:14;95261.59;;;10.86;83.74
11347;BME280;5728;42.722;23.258;2022-10-23T01:24:49;95273.75;;;10.81;83.58
11347;BME280;5728;42.722;23.258;2022-10-23T01:27:22;95279.78;;;10.80;83.41
11347;BME280;5728;42.722;23.258;2022-10-23T01:29:58;95286.88;;;10.57;84.36
11347;BME280;5728;42.722;23.258;2022-10-23T01:32:32;95287.84;;;10.44;85.39
11347;BME280;5728;42.722;23.258;2022-10-23T01:35:04;95278.09;;;10.76;85.29
11347;BME280;5728;42.722;23.258;2022-10-23T01:37:37;95285.94;;;10.69;84.88
11347;BME280;5728;42.722;23.258;2022-10-23T01:40:09;95278.16;;;10.69;84.61
11347;BME280;5728;42.722;23.258;2022-10-23T01:42:44;95284.56;;;10.18;87.57
11347;BME280;5728;42.722;23.258;2022-10-23T01:45:16;95277.72;;;10.02;88.14
11347;BME280;5728;42.722;23.258;2022-10-23T01:47:44;95270.78;;;10.07;88.74
11347;BME280;5728;42.722;23.258;2022-10-23T01:50:12;95264.66;;;10.26;88.05
11347;BME280;5728;42.722;23.258;2022-10-23T01:52:40;95273.28;;;10.27;87.72
11347;BME280;5728;42.722;23.258;2022-10-23T01:55:09;95272.41;;;10.26;88.67
11347;BME280;5728;42.722;23.258;2022-10-23T01:57:40;95283.69;;;10.17;89.63
11347;BME280;5728;42.722;23.258;2022-10-23T02:00:11;95291.41;;;10.31;89.36
11347;BME280;5728;42.722;23.258;2022-10-23T02:02:40;95306.06;;;10.37;89.55
11347;BME280;5728;42.722;23.258;2022-10-23T02:05:10;95310.25;;;10.50;89.09
11347;BME280;5728;42.722;23.258;2022-10-23T02:07:37;95302.41;;;10.63;88.80
11347;BME280;5728;42.722;23.258;2022-10-23T02:10:06;95305.84;;;10.62;88.45
11347;BME280;5728;42.722;23.258;2022-10-23T02:12:42;95301.56;;;10.58;89.49
11347;BME280;5728;42.722;23.258;2022-10-23T02:15:19;95311.91;;;10.64;89.63
11347;BME280;5728;42.722;23.258;2022-10-23T02:17:53;95311.75;;;10.85;89.27
11347;BME280;5728;42.722;23.258;2022-10-23T02:20:27;95318.59;;;10.97;88.44
11347;BME280;5728;42.722;23.258;2022-10-23T02:23:00;95317.72;;;10.97;87.65
11347;BME280;5728;42.722;23.258;2022-10-23T02:25:32;95319.34;;;11.10;88.23
11347;BME280;5728;42.722;23.258;2022-10-23T02:28:03;95313.34;;;11.00;88.84
11347;BME280;5728;42.722;23.258;2022-10-23T02:30:34;95313.13;;;11.27;87.56
11347;BME280;5728;42.722;23.258;2022-10-23T02:33:04;95314.09;;;11.13;87.99
11347;BME280;5728;42.722;23.258;2022-10-23T02:35:31;95320.19;;;11.09;88.53
11347;BME280;5728;42.722;23.258;2022-10-23T02:37:59;95321.03;;;11.14;88.50
11347;BME280;5728;42.722;23.258;2022-10-23T02:40:30;95327.38;;;10.76;89.54
11347;BME280;5728;42.722;23.258;2022-10-23T02:43:04;95330.94;;;10.63;91.24
11347;BME280;5728;42.722;23.258;2022-10-23T02:45:38;95326.63;;;10.58;91.35
11347;BME280;5728;42.722;23.258;2022-10-23T02:48:11;95326.59;;;10.67;90.84
11347;BME280;5728;42.722;23.258;2022-10-23T02:50:48;95317.94;;;10.66;90.35
11347;BME280;5728;42.722;23.258;2022-10-23T02:53:21;95323.00;;;10.80;89.62
11347;BME280;5728;42.722;23.258;2022-10-23T02:55:58;95334.38;;;10.62;90.24
11347;BME280;5728;42.722;23.258;2022-10-23T02:58:31;95335.28;;;10.61;91.22
11347;BME280;5728;42.722;23.258;2022-10-23T03:01:05;95343.06;;;10.55;91.83
11347;BME280;5728;42.722;23.258;2022-10-23T03:03:36;95335.25;;;10.63;91.23
11347;BME280;5728;42.722;23.258;2022-10-23T03:06:06;95338.66;;;10.68;90.67
11347;BME280;5728;42.722;23.258;2022-10-23T03:08:40;95327.41;;;10.73;90.21
11347;BME280;5728;42.722;23.258;2022-10-23T03:11:07;95329.91;;;10.87;89.63
11347;BME280;5728;42.722;23.258;2022-10-23T03:13:35;95330.63;;;11.03;89.00
11347;BME280;5728;42.722;23.258;2022-10-23T03:16:02;95323.63;;;11.14;87.79
11347;BME280;5728;42.722;23.258;2022-10-23T03:18:29;95330.44;;;11.24;86.79
11347;BME280;5728;42.722;23.258;2022-10-23T03:20:56;95323.44;;;11.35;85.89
11347;BME280;5728;42.722;23.258;2022-10-23T03:23:23;95334.47;;;11.55;84.38
11347;BME280;5728;42.722;23.258;2022-10-23T03:25:52;95337.84;;;11.63;84.09
11347;BME280;5728;42.722;23.258;2022-10-23T03:28:20;95338.53;;;11.82;82.74
11347;BME280;5728;42.722;23.258;2022-10-23T03:30:48;95341.06;;;11.89;82.00
11347;BME280;5728;42.722;23.258;2022-10-23T03:33:15;95338.34;;;11.98;81.16
11347;BME280;5728;42.722;23.258;2022-10-23T03:35:42;95350.38;;;12.07;80.33
11347;BME280;5728;42.722;23.258;2022-10-23T03:38:09;95348.53;;;12.16;79.66
11347;BME280;5728;42.722;23.258;2022-10-23T03:40:35;95355.31;;;12.27;78.59
11347;BME280;5728;42.722;23.258;2022-10-23T03:43:02;95355.94;;;12.47;77.39
11347;BME280;5728;42.722;23.258;2022-10-23T03:45:29;95358.22;;;12.71;75.97
11347;BME280;5728;42.722;23.258;2022-10-23T03:47:58;95356.47;;;12.70;75.18
11347;BME280;5728;42.722;23.258;2022-10-23T03:50:25;95363.34;;;12.74;75.47
11347;BME280;5728;42.722;23.258;2022-10-23T03:52:52;95369.25;;;12.87;74.77
11347;BME280;5728;42.722;23.258;2022-10-23T03:55:18;95374.47;;;12.85;74.67
11347;BME280;5728;42.722;23.258;2022-10-23T03:57:45;95378.81;;;12.86;75.42
11347;BME280;5728;42.722;23.258;2022-10-23T04:00:12;95383.16;;;12.86;75.30
11347;BME280;5728;42.722;23.258;2022-10-23T04:02:39;95377.94;;;12.84;74.49
11347;BME280;5728;42.722;23.258;2022-10-23T04:05:08;95382.84;;;13.07;72.67
11347;BME280;5728;42.722;23.258;2022-10-23T04:07:35;95388.06;;;13.07;71.19
11347;BME280;5728;42.722;23.258;2022-10-23T04:10:02;95377.41;;;13.22;70.74
11347;BME280;5728;42.722;23.258;2022-10-23T04:12:29;95391.28;;;13.24;69.25
11347;BME280;5728;42.722;23.258;2022-10-23T04:14:56;95388.41;;;13.40;68.32
11347;BME280;5728;42.722;23.258;2022-10-23T04:17:23;95383.88;;;13.52;68.06
11347;BME280;5728;42.722;23.258;2022-10-23T04:19:49;95380.19;;;13.63;67.09
11347;BME280;5728;42.722;23.258;2022-10-23T04:22:17;95367.19;;;13.62;67.22
11347;BME280;5728;42.722;23.258;2022-10-23T04:24:44;95374.94;;;13.66;67.45
11347;BME280;5728;42.722;23.258;2022-10-23T04:27:12;95377.34;;;13.77;67.16
11347;BME280;5728;42.722;23.258;2022-10-23T04:29:39;95379.88;;;13.80;67.07
11347;BME280;5728;42.722;23.258;2022-10-23T04:32:06;95377.22;;;13.84;66.82
11347;BME280;5728;42.722;23.258;2022-10-23T04:34:33;95364.91;;;13.91;66.93
11347;BME280;5728;42.722;23.258;2022-10-23T04:37:00;95366.47;;;14.01;67.25
11347;BME280;5728;42.722;23.258;2022-10-23T04:39:28;95377.75;;;14.01;67.19
11347;BME280;5728;42.722;23.258;2022-10-23T04:41:55;95378.63;;;14.02;67.63
11347;BME280;5728;42.722;23.258;2022-10-23T04:44:21;95371.19;;;13.81;67.67
11347;BME280;5728;42.722;23.258;2022-10-23T04:46:48;95372.34;;;13.65;67.83
11347;BME280;5728;42.722;23.258;2022-10-23T04:49:15;95377.72;;;13.56;67.81
11347;BME280;5728;42.722;23.258;2022-10-23T04:51:41;95377.41;;;13.74;65.90
11347;BME280;5728;42.722;23.258;2022-10-23T04:54:08;95378.19;;;13.77;64.97
11347;BME280;5728;42.722;23.258;2022-10-23T04:56:36;95387.50;;;13.92;64.07
11347;BME280;5728;42.722;23.258;2022-10-23T04:59:04;95387.31;;;14.01;62.73
11347;BME280;5728;42.722;23.258;2022-10-23T05:01:31;95393.22;;;14.11;62.10
11347;BME280;5728;42.722;23.258;2022-10-23T05:03:57;95390.47;;;14.18;61.79
11347;BME280;5728;42.722;23.258;2022-10-23T05:06:24;95402.69;;;14.16;61.93
11347;BME280;5728;42.722;23.258;2022-10-23T05:08:51;95397.41;;;14.19;61.70
11347;BME280;5728;42.722;23.258;2022-10-23T05:11:18;95387.91;;;14.15;61.83
11347;BME280;5728;42.722;23.258;2022-10-23T05:13:46;95390.59;;;14.12;62.29
11347;BME280;5728;42.722;23.258;2022-10-23T05:16:25;95393.88;;;14.20;62.09
11347;BME280;5728;42.722;23.258;2022-10-23T05:18:54;95398.19;;;14.24;61.39
11347;BME280;5728;42.722;23.258;2022-10-23T05:21:24;95397.22;;;14.28;61.63
11347;BME280;5728;42.722;23.258;2022-10-23T05:23:53;95409.28;;;14.35;61.51
11347;BME280;5728;42.722;23.258;2022-10-23T05:26:20;95407.53;;;14.37;61.25
11347;BME280;5728;42.722;23.258;2022-10-23T05:28:49;95403.84;;;14.47;60.74
11347;BME280;5728;42.722;23.258;2022-10-23T05:31:17;95407.13;;;14.57;61.36
11347;BME280;5728;42.722;23.258;2022-10-23T05:33:44;95406.94;;;14.64;61.14
11347;BME280;5728;42.722;23.258;2022-10-23T05:36:12;95415.66;;;14.63;61.15
11347;BME280;5728;42.722;23.258;2022-10-23T05:38:39;95426.66;;;14.79;61.20
11347;BME280;5728;42.722;23.258;2022-10-23T05:41:07;95432.84;;;14.74;62.20
11347;BME280;5728;42.722;23.258;2022-10-23T05:43:34;95435.09;;;14.92;62.19
11347;BME280;5728;42.722;23.258;2022-10-23T05:46:05;95443.63;;;14.98;62.08
11347;BME280;5728;42.722;23.258;2022-10-23T05:48:32;95452.22;;;15.05;63.60
11347;BME280;5728;42.722;23.258;2022-10-23T05:51:03;95445.94;;;15.12;65.53
11347;BME280;5728;42.722;23.258;2022-10-23T05:53:30;95443.06;;;15.24;65.76
11347;BME280;5728;42.722;23.258;2022-10-23T05:56:02;95448.16;;;15.30;65.78
11347;BME280;5728;42.722;23.258;2022-10-23T05:58:29;95455.75;;;15.41;65.47
11347;BME280;5728;42.722;23.258;2022-10-23T06:00:56;95464.34;;;15.47;66.16
11347;BME280;5728;42.722;23.258;2022-10-23T06:03:24;95472.13;;;15.50;67.46
11347;BME280;5728;42.722;23.258;2022-10-23T06:05:51;95469.28;;;15.59;68.27
11347;BME280;5728;42.722;23.258;2022-10-23T06:08:18;95467.53;;;15.60;68.67
11347;BME280;5728;42.722;23.258;2022-10-23T06:10:44;95471.94;;;15.58;69.12
11347;BME280;5728;42.722;23.258;2022-10-23T06:13:11;95477.22;;;15.55;70.08
11347;BME280;5728;42.722;23.258;2022-10-23T06:15:38;95491.47;;;15.78;69.30
11347;BME280;5728;42.722;23.258;2022-10-23T06:18:05;95485.41;;;15.78;70.17
11347;BME280;5728;42.722;23.258;2022-10-23T06:20:35;95492.06;;;15.89;70.72
11347;BME280;5728;42.722;23.258;2022-10-23T06:23:02;95495.00;;;15.77;72.06
11347;BME280;5728;42.722;23.258;2022-10-23T06:25:29;95495.56;;;15.88;72.38
11347;BME280;5728;42.722;23.258;2022-10-23T06:27:56;95497.97;;;15.98;72.80
11347;BME280;5728;42.722;23.258;2022-10-23T06:30:23;95497.97;;;15.98;73.16
11347;BME280;5728;42.722;23.258;2022-10-23T06:32:50;95489.94;;;16.05;73.21
11347;BME280;5728;42.722;23.258;2022-10-23T06:35:17;95486.13;;;16.18;73.33
11347;BME280;5728;42.722;23.258;2022-10-23T06:37:45;95492.28;;;16.16;73.24
11347;BME280;5728;42.722;23.258;2022-10-23T06:40:11;95501.44;;;16.33;72.42
11347;BME280;5728;42.722;23.258;2022-10-23T06:42:38;95502.63;;;16.55;71.63
11347;BME280;5728;42.722;23.258;2022-10-23T06:45:06;95509.03;;;16.76;71.04
11347;BME280;5728;42.722;23.258;2022-10-23T06:47:33;95511.72;;;16.73;70.86
11347;BME280;5728;42.722;23.258;2022-10-23T06:49:59;95510.69;;;17.09;70.78
11347;BME280;5728;42.722;23.258;2022-10-23T06:52:27;95517.13;;;17.29;69.05
11347;BME280;5728;42.722;23.258;2022-10-23T06:54:57;95498.59;;;17.64;68.16
11347;BME280;5728;42.722;23.258;2022-10-23T06:57:24;95504.03;;;17.85;68.04
11347;BME280;5728;42.722;23.258;2022-10-23T06:59:50;95506.56;;;17.89;68.67
11347;BME280;5728;42.722;23.258;2022-10-23T07:02:17;95509.84;;;17.67;69.09
11347;BME280;5728;42.722;23.258;2022-10-23T07:04:44;95516.84;;;17.38;71.07
11347;BME280;5728;42.722;23.258;2022-10-23T07:07:11;95506.66;;;16.98;73.22
11347;BME280;5728;42.722;23.258;2022-10-23T07:09:37;95517.72;;;16.77;74.70
11347;BME280;5728;42.722;23.258;2022-10-23T07:12:06;95518.72;;;16.73;75.48
11347;BME280;5728;42.722;23.258;2022-10-23T07:14:32;95519.91;;;16.93;74.87
11347;BME280;5728;42.722;23.258;2022-10-23T07:16:59;95528.19;;;16.78;75.24
11347;BME280;5728;42.722;23.258;2022-10-23T07:19:26;95515.19;;;17.04;74.49
11347;BME280;5728;42.722;23.258;2022-10-23T07:21:53;95511.00;;;16.99;74.36
11347;BME280;5728;42.722;23.258;2022-10-23T07:24:19;95509.34;;;16.96;74.50
11347;BME280;5728;42.722;23.258;2022-10-23T07:26:46;95511.53;;;17.11;74.01
11347;BME280;5728;42.722;23.258;2022-10-23T07:29:14;95496.59;;;17.13;73.54
11347;BME280;5728;42.722;23.258;2022-10-23T07:31:41;95518.56;;;17.39;72.39
11347;BME280;5728;42.722;23.258;2022-10-23T07:34:08;95508.06;;;17.68;71.22
11347;BME280;5728;42.722;23.258;2022-10-23T07:36:35;95513.84;;;18.07;69.49
11347;BME280;5728;42.722;23.258;2022-10-23T07:39:02;95511.25;;;18.05;68.18
11347;BME280;5728;42.722;23.258;2022-10-23T07:41:29;95503.97;;;18.15;67.47
11347;BME280;5728;42.722;23.258;2022-10-23T07:43:56;95519.03;;;18.34;66.85
11347;BME280;5728;42.722;23.258;2022-10-23T07:46:25;95500.31;;;18.45;65.83
11347;BME280;5728;42.722;23.258;2022-10-23T07:48:52;95512.28;;;18.54;65.35
11347;BME280;5728;42.722;23.258;2022-10-23T07:51:18;95495.28;;;18.64;64.75
11347;BME280;5728;42.722;23.258;2022-10-23T07:53:45;95512.59;;;18.69;64.34
11347;BME280;5728;42.722;23.258;2022-10-23T07:56:14;95513.19;;;19.02;63.97
11347;BME280;5728;42.722;23.258;2022-10-23T07:58:41;95514.53;;;18.89;64.68
11347;BME280;5728;42.722;23.258;2022-10-23T08:01:19;95517.91;;;18.92;64.67
11347;BME280;5728;42.722;23.258;2022-10-23T08:03:47;95508.13;;;18.96;65.62
11347;BME280;5728;42.722;23.258;2022-10-23T08:06:14;95513.53;;;19.16;64.51
11347;BME280;5728;42.722;23.258;2022-10-23T08:08:41;95511.03;;;19.59;63.46
11347;BME280;5728;42.722;23.258;2022-10-23T08:11:10;95523.63;;;19.03;64.28
11347;BME280;5728;42.722;23.258;2022-10-23T08:13:38;95527.25;;;19.24;64.41
11347;BME280;5728;42.722;23.258;2022-10-23T08:16:05;95514.53;;;19.60;63.99
11347;BME280;5728;42.722;23.258;2022-10-23T08:18:32;95527.78;;;19.10;65.02
11347;BME280;5728;42.722;23.258;2022-10-23T08:21:01;95521.50;;;18.90;65.90
11347;BME280;5728;42.722;23.258;2022-10-23T08:23:29;95521.22;;;18.97;66.13
11347;BME280;5728;42.722;23.258;2022-10-23T08:25:56;95509.72;;;19.25;65.72
11347;BME280;5728;42.722;23.258;2022-10-23T08:28:24;95523.44;;;19.33;64.96
11347;BME280;5728;42.722;23.258;2022-10-23T08:30:51;95524.97;;;19.15;64.65
11347;BME280;5728;42.722;23.258;2022-10-23T08:33:18;95518.50;;;19.48;64.63
11347;BME280;5728;42.722;23.258;2022-10-23T08:35:45;95524.75;;;19.44;65.14
11347;BME280;5728;42.722;23.258;2022-10-23T08:38:13;95523.03;;;19.66;65.04
11347;BME280;5728;42.722;23.258;2022-10-23T08:40:44;95524.16;;;19.38;64.70
11347;BME280;5728;42.722;23.258;2022-10-23T08:43:16;95517.91;;;19.63;63.40
11347;BME280;5728;42.722;23.258;2022-10-23T08:45:48;95516.97;;;19.41;64.02
11347;BME280;5728;42.722;23.258;2022-10-23T08:48:20;95513.59;;;19.15;65.14
11347;BME280;5728;42.722;23.258;2022-10-23T08:50:52;95515.47;;;19.34;64.48
11347;BME280;5728;42.722;23.258;2022-10-23T08:53:28;95516.19;;;19.62;63.53
11347;BME280;5728;42.722;23.258;2022-10-23T08:56:00;95520.69;;;20.04;62.68
11347;BME280;5728;42.722;23.258;2022-10-23T08:58:38;95526.06;;;20.01;63.35
11347;BME280;5728;42.722;23.258;2022-10-23T09:01:24;95502.06;;;20.08;61.68
11347;BME280;5728;42.722;23.258;2022-10-23T09:03:53;95499.91;;;20.40;61.15
11347;BME280;5728;42.722;23.258;2022-10-23T09:06:30;95506.50;;;20.50;60.71
11347;BME280;5728;42.722;23.258;2022-10-23T09:09:19;95508.47;;;20.45;61.20
11347;BME280;5728;42.722;23.258;2022-10-23T09:11:59;95506.06;;;20.80;59.44
11347;BME280;5728;42.722;23.258;2022-10-23T09:14:46;95513.72;;;20.66;59.85
11347;BME280;5728;42.722;23.258;2022-10-23T09:17:22;95515.03;;;20.56;59.83
11347;BME280;5728;42.722;23.258;2022-10-23T09:19:55;95527.91;;;20.62;59.68
11347;BME280;5728;42.722;23.258;2022-10-23T09:22:24;95513.06;;;20.81;59.32
11347;BME280;5728;42.722;23.258;2022-10-23T09:24:52;95507.78;;;21.22;58.51
11347;BME280;5728;42.722;23.258;2022-10-23T09:27:19;95505.91;;;21.24;57.57
11347;BME280;5728;42.722;23.258;2022-10-23T09:29:49;95507.31;;;21.88;56.02
11347;BME280;5728;42.722;23.258;2022-10-23T09:32:16;95494.78;;;21.73;55.34
11347;BME280;5728;42.722;23.258;2022-10-23T09:34:54;95502.38;;;21.62;55.39
11347;BME280;5728;42.722;23.258;2022-10-23T09:37:23;95506.53;;;21.86;54.67
11347;BME280;5728;42.722;23.258;2022-10-23T09:40:03;95512.38;;;21.93;53.65
11347;BME280;5728;42.722;23.258;2022-10-23T09:42:50;95497.94;;;21.62;53.75
11347;BME280;5728;42.722;23.258;2022-10-23T09:45:26;95504.59;;;22.25;52.67
11347;BME280;5728;42.722;23.258;2022-10-23T09:48:11;95493.72;;;22.32;51.24
11347;BME280;5728;42.722;23.258;2022-10-23T09:50:47;95493.34;;;22.56;50.04
11347;BME280;5728;42.722;23.258;2022-10-23T09:53:16;95504.19;;;22.86;48.98
11347;BME280;5728;42.722;23.258;2022-10-23T09:55:52;95509.50;;;22.69;48.88
11347;BME280;5728;42.722;23.258;2022-10-23T09:58:20;95497.03;;;21.82;52.25
11347;BME280;5728;42.722;23.258;2022-10-23T10:00:51;95500.53;;;21.64;52.22
11347;BME280;5728;42.722;23.258;2022-10-23T10:03:19;95498.97;;;21.97;51.43
11347;BME280;5728;42.722;23.258;2022-10-23T10:05:58;95492.50;;;21.84;50.11
11347;BME280;5728;42.722;23.258;2022-10-23T10:08:39;95496.28;;;21.79;50.49
11347;BME280;5728;42.722;23.258;2022-10-23T10:11:15;95491.81;;;21.99;49.31
11347;BME280;5728;42.722;23.258;2022-10-23T10:14:17;95484.41;;;22.59;46.83
11347;BME280;5728;42.722;23.258;2022-10-23T10:16:50;95497.53;;;22.43;47.29
11347;BME280;5728;42.722;23.258;2022-10-23T10:19:32;95491.13;;;22.13;47.70
11347;BME280;5728;42.722;23.258;2022-10-23T10:22:05;95475.81;;;22.55;46.81
11347;BME280;5728;42.722;23.258;2022-10-23T10:24:41;95480.09;;;23.25;45.27
11347;BME280;5728;42.722;23.258;2022-10-23T10:27:23;95478.34;;;22.91;45.46
11347;BME280;5728;42.722;23.258;2022-10-23T10:30:02;95470.06;;;23.14;45.59
11347;BME280;5728;42.722;23.258;2022-10-23T10:32:35;95473.00;;;23.25;44.16
11347;BME280;5728;42.722;23.258;2022-10-23T10:35:18;95476.13;;;23.01;44.66
11347;BME280;5728;42.722;23.258;2022-10-23T10:38:00;95469.81;;;22.86;44.92
11347;BME280;5728;42.722;23.258;2022-10-23T10:40:32;95464.91;;;22.96;46.35
11347;BME280;5728;42.722;23.258;2022-10-23T10:43:22;95467.41;;;22.81;46.41
11347;BME280;5728;42.722;23.258;2022-10-23T10:45:56;95463.41;;;23.07;45.87
11347;BME280;5728;42.722;23.258;2022-10-23T10:48:39;95447.13;;;23.15;45.76
11347;BME280;5728;42.722;23.258;2022-10-23T10:51:08;95463.72;;;23.01;45.89
11347;BME280;5728;42.722;23.258;2022-10-23T10:53:48;95421.56;;;22.98;46.05
11347;BME280;5728;42.722;23.258;2022-10-23T10:56:19;95442.75;;;22.98;46.04
11347;BME280;5728;42.722;23.258;2022-10-23T10:58:52;95439.38;;;23.27;43.54
11347;BME280;5728;42.722;23.258;2022-10-23T11:01:22;95438.06;;;22.86;44.52
11347;BME280;5728;42.722;23.258;2022-10-23T11:03:54;95448.66;;;23.67;43.81
11347;BME280;5728;42.722;23.258;2022-10-23T11:06:27;95442.78;;;23.78;43.64
11347;BME280;5728;42.722;23.258;2022-10-23T11:08:58;95441.25;;;23.74;43.39
11347;BME280;5728;42.722;23.258;2022-10-23T11:11:29;95433.56;;;23.54;44.10
11347;BME280;5728;42.722;23.258;2022-10-23T11:13:59;95445.34;;;23.64;44.00
11347;BME280;5728;42.722;23.258;2022-10-23T11:16:29;95430.16;;;23.34;43.19
11347;BME280;5728;42.722;23.258;2022-10-23T11:19:03;95432.44;;;23.58;42.16
11347;BME280;5728;42.722;23.258;2022-10-23T11:21:36;95433.63;;;23.19;42.38
11347;BME280;5728;42.722;23.258;2022-10-23T11:24:24;95430.56;;;23.91;41.87
11347;BME280;5728;42.722;23.258;2022-10-23T11:27:12;95418.09;;;24.08;41.59
11347;BME280;5728;42.722;23.258;2022-10-23T11:30:12;95422.69;;;23.89;42.15
11347;BME280;5728;42.722;23.258;2022-10-23T11:33:04;95419.78;;;23.94;42.49
11347;BME280;5728;42.722;23.258;2022-10-23T11:35:47;95418.34;;;24.63;40.60
11347;BME280;5728;42.722;23.258;2022-10-23T11:38:18;95419.75;;;25.13;40.25
11347;BME280;5728;42.722;23.258;2022-10-23T11:40:51;95406.75;;;24.05;40.90
11347;BME280;5728;42.722;23.258;2022-10-23T11:43:26;95402.16;;;24.24;39.61
11347;BME280;5728;42.722;23.258;2022-10-23T11:45:55;95399.47;;;23.79;39.79
11347;BME280;5728;42.722;23.258;2022-10-23T11:48:34;95405.13;;;24.48;39.24
11347;BME280;5728;42.722;23.258;2022-10-23T11:51:02;95396.84;;;24.24;39.30
11347;BME280;5728;42.722;23.258;2022-10-23T11:53:38;95394.38;;;24.05;40.70
11347;BME280;5728;42.722;23.258;2022-10-23T11:56:23;95390.38;;;24.14;40.47
11347;BME280;5728;42.722;23.258;2022-10-23T11:58:51;95389.19;;;24.04;41.08
11347;BME280;5728;42.722;23.258;2022-10-23T12:01:33;95378.22;;;24.10;39.58
11347;BME280;5728;42.722;23.258;2022-10-23T12:04:05;95381.56;;;23.98;40.38
11347;BME280;5728;42.722;23.258;2022-10-23T12:06:44;95381.56;;;24.57;39.42
11347;BME280;5728;42.722;23.258;2022-10-23T12:09:28;95380.63;;;23.99;38.63
11347;BME280;5728;42.722;23.258;2022-10-23T12:12:11;95383.75;;;23.76;39.96
11347;BME280;5728;42.722;23.258;2022-10-23T12:14:43;95374.88;;;23.45;40.54
11347;BME280;5728;42.722;23.258;2022-10-23T12:17:28;95380.81;;;23.96;40.11
11347;BME280;5728;42.722;23.258;2022-10-23T12:20:03;95379.56;;;24.17;39.51
11347;BME280;5728;42.722;23.258;2022-10-23T12:22:45;95372.78;;;23.35;40.69
11347;BME280;5728;42.722;23.258;2022-10-23T12:25:15;95380.69;;;23.68;39.95
11347;BME280;5728;42.722;23.258;2022-10-23T12:27:46;95379.84;;;23.03;40.84
11347;BME280;5728;42.722;23.258;2022-10-23T12:30:19;95372.66;;;23.54;40.61
11347;BME280;5728;42.722;23.258;2022-10-23T12:33:14;95367.88;;;23.44;40.33
11347;BME280;5728;42.722;23.258;2022-10-23T12:38:43;95373.97;;;23.92;40.34
11347;BME280;5728;42.722;23.258;2022-10-23T12:41:13;95369.66;;;23.60;39.67
11347;BME280;5728;42.722;23.258;2022-10-23T12:43:42;95376.25;;;23.68;39.65
11347;BME280;5728;42.722;23.258;2022-10-23T12:46:27;95376.41;;;24.26;38.43
11347;BME280;5728;42.722;23.258;2022-10-23T12:48:57;95372.47;;;24.18;38.78
11347;BME280;5728;42.722;23.258;2022-10-23T12:51:26;95381.25;;;23.73;39.55
11347;BME280;5728;42.722;23.258;2022-10-23T12:53:54;95384.56;;;23.29;40.33
11347;BME280;5728;42.722;23.258;2022-10-23T12:56:23;95388.59;;;23.36;40.01
11347;BME280;5728;42.722;23.258;2022-10-23T12:58:53;95377.88;;;24.00;39.38
11347;BME280;5728;42.722;23.258;2022-10-23T13:01:24;95379.03;;;23.81;39.28
11347;BME280;5728;42.722;23.258;2022-10-23T13:04:00;95380.00;;;23.48;40.55
11347;BME280;5728;42.722;23.258;2022-10-23T13:06:28;95372.19;;;23.77;40.27
11347;BME280;5728;42.722;23.258;2022-10-23T13:08:55;95378.44;;;23.76;39.66
11347;BME280;5728;42.722;23.258;2022-10-23T13:11:23;95371.50;;;23.89;38.90
11347;BME280;5728;42.722;23.258;2022-10-23T13:13:51;95361.28;;;23.52;39.86
11347;BME280;5728;42.722;23.258;2022-10-23T13:16:21;95369.25;;;23.36;39.28
11347;BME280;5728;42.722;23.258;2022-10-23T13:18:48;95370.06;;;23.21;39.30
11347;BME280;5728;42.722;23.258;2022-10-23T13:21:19;95378.63;;;23.57;38.91
11347;BME280;5728;42.722;23.258;2022-10-23T13:23:46;95360.09;;;23.73;39.29